Beauport, Canada
Current Conditions -  °F | °C
As of 10:00 AM on Wednesday 22 Oct 2014 (Local Time) from CYQB Reporting Station
Broken Clouds Broken Clouds  
Wind Chill: 37°   Ceiling: 6600
Heat Index: 45°   Visibility: 30mi
Dew Point: 34°   Wind: 16mph
Humidity: 66%   Direction: 60°ENE
Pressure: 30.38"   Gusts: 25mph
Location:  46.86°N, 71.19°W
Report Text: CYQB 221400Z 06014G22KT 30SM FEW012 BKN066 07/01 A3038 RMK SC1AC6 SLP292
Loading
Personal Weather Stations






























Interactive Weather Map
Tropical Storm Tracking
New forecast layout! Learn more

10-Day Weather Forecast

Advertisements
Track Severe Weather on mobile